Bar Harbor, Maine
Current Conditions -  °F | °C
As of 1:15 AM on Thursday 23 Oct 2014 (Local Time) from KBHB Reporting Station
Overcast Overcast  
Wind Chill: 42°   Ceiling: 800
Heat Index: 48°   Visibility: 7mi
Dew Point: 48°   Wind: 15mph
Humidity: 100%   Direction: 30°NNE
Pressure: 30.01"   Gusts: 24mph
Location:  44.39°N, 68.2°W
Report Text: KBHB 230515Z AUTO 03013G21KT 7SM OVC008 09/09 A3001 RMK AO1
Loading
Personal Weather Stations






























Interactive Weather Map
Tropical Storm Tracking
New forecast layout! Learn more

10-Day Weather Forecast

Advertisements
Track Severe Weather on mobile